Aérodrome :
LOGIN :

S'inscrire | Disclaimer

   EN    FR    IT 

 










Légende :    VFR   VFR Marginal   IFR   IFR Intensif   IFR Très Intensif
Visi : 
Plafond : 
>= 8 km
>= 3000ft
5 à 8 km
1000 à 3000 ft
1500m à 5 km
500 à 1000 ft
800 à 1500m
200 à 500 ft
< 800m
< 200 ft
Symboles :   Orages  Brouillard  Fortes neiges  Fortes précipitations  Vent > 20 kt
SIGMETs :   Divers  Orages  Givrage  Turbulence  Onde Orograph.  Cendres Volcan.






- Altitude de l'aérodrome : 396 ft


LFOZ - Orléans St Denis

DERNIER METAR :
  • 290600Z AUTO 22008KT 4500 -RA BR OVC006/// ///TCU 13/12 Q1016

METARs EXPIRÉS :
  • 290530Z AUTO 22009KT 9999 1600 RA BKN006/// OVC018/// ///TCU 13/12 Q1016
  • 290500Z AUTO 22009KT 5000 -RA BR BKN009/// BKN016/// OVC027/// ///CB 13/12 Q1016
  • 290430Z AUTO 22008KT 6000 -RA FEW011/// BKN025/// OVC031/// ///TCU 13/12 Q1016
  • 290400Z AUTO 22008KT 9000 -RA FEW026/// OVC033/// ///CB 13/12 Q1016
  • 290330Z AUTO 22007KT 9999 -DZ OVC032/// ///TCU 13/12 Q1016
  • 290300Z AUTO 24005KT 210V270 9999 -RA BKN033/// BKN048/// OVC100/// ///TCU 13/12 Q1016
  • 290230Z AUTO 23006KT 200V260 9999 -RA ///TCU 13/12 Q1016
  • 290200Z AUTO 22007KT 9999 SCT045/// OVC100/// ///CB 14/12 Q1016
  • 290130Z AUTO 25006KT 200V280 9999 FEW021 BKN047 BKN120 14/12 Q1017

TAF N/A



MET'MAP, la Météo Aéronautique d'un coup d'oeil ! - Copyright ORBIFLY Décembre 2007 - Disclaimer

ORBIFLY MET'MAP TEAM :

Programmation & Développement : Alexandra Zaïnal
Sur une idée originale de : Baudouin d'Aumeries
Soutien technique & logistique : Manuel Goepfert
Assistance : Marc-Olivier Méhu




SOURCES & CREDITS :

   NOAA